createdAt,value
2018-12-11T00:00:53.126Z,3.54
2018-12-11T00:01:53.146Z,3.54
2018-12-11T00:02:53.089Z,3.58
2018-12-11T00:03:53.073Z,3.52
2018-12-11T00:04:53.062Z,3.54
2018-12-11T00:05:53.181Z,3.54
2018-12-11T00:06:53.019Z,3.66
2018-12-11T00:07:52.994Z,3.58
2018-12-11T00:08:52.970Z,3.65
2018-12-11T00:09:52.955Z,3.66
2018-12-11T00:10:52.941Z,3.55
2018-12-11T00:11:52.962Z,3.68
2018-12-11T00:12:52.896Z,3.62
2018-12-11T00:13:59.435Z,3.62
2018-12-11T00:14:52.860Z,3.65
2018-12-11T00:15:52.833Z,3.76
2018-12-11T00:16:53.043Z,3.80
2018-12-11T00:17:52.790Z,3.69
2018-12-11T00:18:53.014Z,3.70
2018-12-11T00:19:52.762Z,3.76
2018-12-11T00:20:52.733Z,3.75
2018-12-11T00:21:52.706Z,3.78
2018-12-11T00:22:52.713Z,3.75
2018-12-11T00:23:52.664Z,3.79
2018-12-11T00:24:52.651Z,3.80
2018-12-11T00:25:52.629Z,3.83
2018-12-11T00:26:52.620Z,3.80
2018-12-11T00:27:52.595Z,3.97
2018-12-11T00:28:52.583Z,3.86
2018-12-11T00:29:52.552Z,3.86
2018-12-11T00:30:52.532Z,3.88
2018-12-11T00:31:52.516Z,3.91
2018-12-11T00:32:52.500Z,3.83
2018-12-11T00:33:52.517Z,3.80
2018-12-11T00:34:52.458Z,3.79
2018-12-11T00:35:52.436Z,3.83
2018-12-11T00:36:52.401Z,3.83
2018-12-11T00:37:52.390Z,3.76
2018-12-11T00:38:52.379Z,3.79
2018-12-11T00:39:52.364Z,3.68
2018-12-11T00:40:52.328Z,3.79
2018-12-11T00:41:52.317Z,3.73
2018-12-11T00:42:52.285Z,3.76
2018-12-11T00:44:03.236Z,3.76
2018-12-11T00:44:52.277Z,3.78
2018-12-11T00:45:52.255Z,3.79
2018-12-11T00:46:52.204Z,3.83
2018-12-11T00:47:52.191Z,3.88
2018-12-11T00:48:52.176Z,3.97
2018-12-11T00:49:52.146Z,3.83
2018-12-11T00:50:52.268Z,3.88
2018-12-11T00:51:52.117Z,3.84
2018-12-11T00:52:52.088Z,3.86
2018-12-11T00:53:52.061Z,3.76
2018-12-11T00:54:52.041Z,3.80
2018-12-11T00:55:52.039Z,3.83
2018-12-11T00:56:52.020Z,3.78
2018-12-11T00:57:51.990Z,3.70
2018-12-11T00:58:51.973Z,3.66
2018-12-11T00:59:51.943Z,3.65
2018-12-11T01:00:51.926Z,3.66
2018-12-11T01:01:51.917Z,3.66
2018-12-11T01:02:51.885Z,3.66
2018-12-11T01:03:51.866Z,3.68
2018-12-11T01:04:51.858Z,3.65
2018-12-11T01:05:51.833Z,3.66
2018-12-11T01:06:51.848Z,3.62
2018-12-11T01:07:51.812Z,3.72
2018-12-11T01:08:51.777Z,3.57
2018-12-11T01:09:51.746Z,3.54
2018-12-11T01:10:51.728Z,3.52
2018-12-11T01:11:51.706Z,3.55
2018-12-11T01:12:51.724Z,3.55
2018-12-11T01:13:51.702Z,3.62
2018-12-11T01:14:51.657Z,3.54
2018-12-11T01:15:51.644Z,3.57
2018-12-11T01:16:51.622Z,3.54
2018-12-11T01:17:51.592Z,3.57
2018-12-11T01:18:51.635Z,3.48
2018-12-11T01:19:51.553Z,3.51
2018-12-11T01:20:51.536Z,3.45
2018-12-11T01:21:51.513Z,3.55
2018-12-11T01:22:51.499Z,3.54
2018-12-11T01:23:51.477Z,3.52
2018-12-11T01:24:51.444Z,3.55
2018-12-11T01:25:51.459Z,3.62
2018-12-11T01:26:51.402Z,3.60
2018-12-11T01:27:51.385Z,3.55
2018-12-11T01:28:51.358Z,3.52
2018-12-11T01:29:51.353Z,3.54
2018-12-11T01:30:51.362Z,3.52
2018-12-11T01:31:51.316Z,3.45
2018-12-11T01:32:51.320Z,3.57
2018-12-11T01:33:51.266Z,3.45
2018-12-11T01:34:51.242Z,3.40
2018-12-11T01:35:51.236Z,3.43
2018-12-11T01:36:51.203Z,3.31
2018-12-11T01:37:51.192Z,3.32
2018-12-11T01:38:51.165Z,3.33
2018-12-11T01:39:51.156Z,3.36
2018-12-11T01:40:51.137Z,3.29
2018-12-11T01:41:51.154Z,3.31
2018-12-11T01:42:51.114Z,3.31
2018-12-11T01:44:26.183Z,3.31
2018-12-11T01:44:51.052Z,3.33
2018-12-11T01:45:51.035Z,3.33
2018-12-11T01:46:51.006Z,3.29
2018-12-11T01:47:51.047Z,3.29
2018-12-11T01:48:50.973Z,3.33
2018-12-11T01:49:50.944Z,3.32
2018-12-11T01:50:50.936Z,3.40
2018-12-11T01:51:50.904Z,3.39
2018-12-11T01:52:50.884Z,3.28
2018-12-11T01:53:54.171Z,3.28
2018-12-11T01:54:50.861Z,3.26
2018-12-11T01:55:50.822Z,3.31
2018-12-11T01:56:50.817Z,3.35
2018-12-11T01:57:50.785Z,3.31
2018-12-11T01:58:50.912Z,3.31
2018-12-11T01:59:50.766Z,3.20
2018-12-11T02:00:50.737Z,3.11
2018-12-11T02:01:50.711Z,3.17
2018-12-11T02:02:50.695Z,3.28
2018-12-11T02:03:50.673Z,3.24
2018-12-11T02:04:50.788Z,3.14
2018-12-11T02:05:50.625Z,3.23
2018-12-11T02:06:50.600Z,3.26
2018-12-11T02:07:50.601Z,3.20
2018-12-11T02:11:34.120Z,3.11
2018-12-11T02:12:34.085Z,3.20
2018-12-11T02:13:34.075Z,3.13
2018-12-11T02:14:34.043Z,3.18
2018-12-11T02:15:34.093Z,3.23
2018-12-11T02:16:34.003Z,3.26
2018-12-11T02:17:33.988Z,3.28
2018-12-11T02:18:33.978Z,3.26
2018-12-11T02:19:33.942Z,3.26
2018-12-11T02:20:33.924Z,3.20
2018-12-11T02:21:33.950Z,3.23
2018-12-11T02:22:49.789Z,3.14
2018-12-11T02:23:33.873Z,3.31
2018-12-11T02:24:33.861Z,3.36
2018-12-11T02:25:33.837Z,3.26
2018-12-11T02:26:33.836Z,3.21
2018-12-11T02:27:33.796Z,3.42
2018-12-11T02:28:33.765Z,3.43
2018-12-11T02:29:33.754Z,3.32
2018-12-11T02:30:33.730Z,3.31
2018-12-11T02:31:33.704Z,3.32
2018-12-11T02:32:33.830Z,3.29
2018-12-11T02:33:33.663Z,3.31
2018-12-11T02:34:33.655Z,3.32
2018-12-11T02:35:33.636Z,3.33
2018-12-11T02:36:33.598Z,3.28
2018-12-11T02:37:33.589Z,3.28
2018-12-11T02:38:33.573Z,3.47
2018-12-11T02:39:33.690Z,3.31
2018-12-11T02:40:33.520Z,3.28
2018-12-11T02:41:33.505Z,3.31
2018-12-11T02:42:33.478Z,3.35
2018-12-11T02:43:55.334Z,3.32
2018-12-11T02:44:33.436Z,3.36
2018-12-11T02:45:33.576Z,3.32
2018-12-11T02:46:33.408Z,3.47
2018-12-11T02:47:33.389Z,3.33
2018-12-11T02:48:33.359Z,3.36
2018-12-11T02:49:46.386Z,3.36
2018-12-11T02:50:33.318Z,3.47
2018-12-11T02:51:33.318Z,3.39
2018-12-11T02:52:33.283Z,3.33
2018-12-11T02:53:33.270Z,3.35
2018-12-11T02:54:33.251Z,3.40
2018-12-11T02:55:33.230Z,3.40
2018-12-11T02:56:33.238Z,3.33
2018-12-11T02:57:33.174Z,3.32
2018-12-11T02:58:33.182Z,3.36
2018-12-11T02:59:33.130Z,3.35
2018-12-11T03:00:33.133Z,3.29
2018-12-11T03:01:33.128Z,3.29
2018-12-11T03:02:45.438Z,3.26
2018-12-11T03:03:33.061Z,3.36
2018-12-11T03:04:33.050Z,3.31
2018-12-11T03:05:33.026Z,3.28
2018-12-11T03:06:33.000Z,3.31
2018-12-11T03:07:32.973Z,3.35
2018-12-11T03:08:32.966Z,3.32
2018-12-11T03:09:32.948Z,3.42
2018-12-11T03:10:32.931Z,3.47
2018-12-11T03:11:32.904Z,3.40
2018-12-11T03:12:32.887Z,3.40
2018-12-11T03:13:32.883Z,3.32
2018-12-11T03:14:32.834Z,3.31
2018-12-11T03:15:32.811Z,3.29
2018-12-11T03:16:32.796Z,3.32
2018-12-11T03:17:32.771Z,3.26
2018-12-11T03:18:32.796Z,3.21
2018-12-11T03:19:32.739Z,3.33
2018-12-11T03:20:32.718Z,3.36
2018-12-11T03:21:32.733Z,3.26
2018-12-11T03:22:32.682Z,3.24
2018-12-11T03:23:32.669Z,3.11
2018-12-11T03:24:32.646Z,3.26
2018-12-11T03:25:32.617Z,3.29
2018-12-11T03:26:32.745Z,3.23
2018-12-11T03:27:32.578Z,3.24
2018-12-11T03:28:32.550Z,3.20
2018-12-11T03:29:32.527Z,3.17
2018-12-11T03:30:32.511Z,3.05
2018-12-11T03:31:32.500Z,3.14
2018-12-11T03:32:32.503Z,3.20
2018-12-11T03:33:32.462Z,3.14
2018-12-11T03:34:32.440Z,3.13
2018-12-11T03:35:32.410Z,3.11
2018-12-11T03:36:32.384Z,3.15
2018-12-11T03:37:32.447Z,3.17
2018-12-11T03:38:32.353Z,3.13
2018-12-11T03:39:32.335Z,3.11
2018-12-11T03:40:40.944Z,2.97
2018-12-11T03:41:32.292Z,3.02
2018-12-11T03:42:40.871Z,3.02
2018-12-11T03:43:32.252Z,3.03
2018-12-11T03:44:32.234Z,3.03
2018-12-11T03:45:40.556Z,3.03
2018-12-11T03:46:32.185Z,3.08
2018-12-11T03:47:32.164Z,3.05
2018-12-11T03:48:32.150Z,3.17
2018-12-11T03:49:32.133Z,3.17
2018-12-11T03:50:32.105Z,3.17
2018-12-11T03:51:32.096Z,3.14
2018-12-11T03:52:32.076Z,3.02
2018-12-11T03:53:32.110Z,3.06
2018-12-11T03:54:32.029Z,3.02
2018-12-11T03:55:32.014Z,3.03
2018-12-11T03:56:31.980Z,3.05
2018-12-11T03:57:31.970Z,2.96
2018-12-11T03:58:31.956Z,3.13
2018-12-11T03:59:31.956Z,3.02
2018-12-11T04:00:31.901Z,2.93
2018-12-11T04:01:31.889Z,3.03
2018-12-11T04:02:31.861Z,2.92
2018-12-11T04:03:31.844Z,3.02
2018-12-11T04:04:31.818Z,2.97
2018-12-11T04:05:31.840Z,2.93
2018-12-11T04:06:31.781Z,2.99
2018-12-11T04:07:31.768Z,2.96
2018-12-11T04:08:31.739Z,2.89
2018-12-11T04:09:31.718Z,2.84
2018-12-11T04:10:31.707Z,2.85
2018-12-11T04:11:31.675Z,2.97
2018-12-11T04:12:31.662Z,2.84
2018-12-11T04:13:54.651Z,2.87
2018-12-11T04:14:31.635Z,2.85
2018-12-11T04:15:31.612Z,2.90
2018-12-11T04:16:31.583Z,3.06
2018-12-11T04:17:31.597Z,2.95
2018-12-11T04:18:31.534Z,2.99
2018-12-11T04:19:31.519Z,3.06
2018-12-11T04:20:31.495Z,2.99
2018-12-11T04:21:31.474Z,2.97
2018-12-11T04:22:31.464Z,2.99
2018-12-11T04:23:31.441Z,3.11
2018-12-11T04:24:31.422Z,3.14
2018-12-11T04:25:31.405Z,3.02
2018-12-11T04:26:31.399Z,3.18
2018-12-11T04:27:31.356Z,3.18
2018-12-11T04:28:31.367Z,3.26
2018-12-11T04:29:31.478Z,3.24
2018-12-11T04:30:31.293Z,3.29
2018-12-11T04:31:31.267Z,3.29
2018-12-11T04:32:31.260Z,3.42
2018-12-11T04:33:31.240Z,3.45
2018-12-11T04:34:31.221Z,3.45
2018-12-11T04:35:31.204Z,3.42
2018-12-11T04:36:31.181Z,3.43
2018-12-11T04:37:31.152Z,3.40
2018-12-11T04:38:31.133Z,3.36
2018-12-11T04:39:34.077Z,3.32
2018-12-11T04:40:31.102Z,3.42
2018-12-11T04:41:31.064Z,3.39
2018-12-11T04:42:31.064Z,3.42
2018-12-11T04:43:31.037Z,3.33
2018-12-11T04:44:31.021Z,3.36
2018-12-11T04:45:31.032Z,3.32
2018-12-11T04:46:31.011Z,3.33
2018-12-11T04:47:30.961Z,3.28
2018-12-11T04:48:30.938Z,3.31
2018-12-11T04:49:30.919Z,3.31
2018-12-11T04:50:30.905Z,3.36
2018-12-11T04:51:31.012Z,3.42
2018-12-11T04:52:30.845Z,3.35
2018-12-11T04:53:30.842Z,3.50
2018-12-11T04:54:30.806Z,3.33
2018-12-11T04:55:30.803Z,3.31
2018-12-11T04:56:30.779Z,3.29
2018-12-11T04:57:30.762Z,3.26
2018-12-11T04:58:30.725Z,3.26
2018-12-11T04:59:30.706Z,3.28
2018-12-11T05:00:30.703Z,3.21
2018-12-11T05:01:30.673Z,3.20
2018-12-11T05:02:30.664Z,3.17
2018-12-11T05:03:30.624Z,3.20
2018-12-11T05:04:30.622Z,3.26
2018-12-11T05:05:30.590Z,3.36
2018-12-11T05:06:30.569Z,3.35
2018-12-11T05:07:30.592Z,3.20
2018-12-11T05:08:30.540Z,3.15
2018-12-11T05:09:30.509Z,3.20
2018-12-11T05:10:30.483Z,3.14
2018-12-11T05:11:30.532Z,3.13
2018-12-11T05:12:30.455Z,3.15
2018-12-11T05:13:30.501Z,3.15
2018-12-11T05:14:30.417Z,3.18
2018-12-11T05:15:30.384Z,3.14
2018-12-11T05:16:30.363Z,3.14
2018-12-11T05:17:30.354Z,3.17
2018-12-11T05:18:30.342Z,3.14
2018-12-11T05:19:30.332Z,3.15
2018-12-11T05:20:30.315Z,3.18
2018-12-11T05:21:30.276Z,3.13
2018-12-11T05:22:30.293Z,3.18
2018-12-11T05:23:30.235Z,3.15
2018-12-11T05:24:30.206Z,3.10
2018-12-11T05:25:30.194Z,2.99
2018-12-11T05:26:30.238Z,3.03
2018-12-11T05:27:30.143Z,3.05
2018-12-11T05:28:30.125Z,3.05
2018-12-11T05:29:30.114Z,3.05
2018-12-11T05:30:30.094Z,3.29
2018-12-11T05:31:30.068Z,3.31
2018-12-11T05:32:30.106Z,3.32
2018-12-11T05:33:30.037Z,3.29
2018-12-11T05:34:30.062Z,3.28
2018-12-11T05:35:29.979Z,3.24
2018-12-11T05:36:29.962Z,3.18
2018-12-11T05:37:30.009Z,3.14
2018-12-11T05:38:29.930Z,3.21
2018-12-11T05:39:29.902Z,3.14
2018-12-11T05:40:29.882Z,3.14
2018-12-11T05:41:29.875Z,2.99
2018-12-11T05:42:29.852Z,3.20
2018-12-11T05:43:29.839Z,3.11
2018-12-11T05:44:29.830Z,3.14
2018-12-11T05:45:29.784Z,3.06
2018-12-11T05:46:29.756Z,3.11
2018-12-11T05:47:29.753Z,3.14
2018-12-11T05:48:29.730Z,3.08
2018-12-11T05:49:29.729Z,3.08
2018-12-11T05:50:29.695Z,3.11
2018-12-11T05:51:29.655Z,3.02
2018-12-11T05:52:29.637Z,3.00
2018-12-11T05:53:29.620Z,2.99
2018-12-11T05:54:29.631Z,3.13
2018-12-11T05:55:29.623Z,3.13
2018-12-11T05:56:29.568Z,3.21
2018-12-11T05:57:29.537Z,3.05
2018-12-11T05:58:29.516Z,3.00
2018-12-11T05:59:29.505Z,3.11
2018-12-11T06:00:29.483Z,2.95
2018-12-11T06:01:29.467Z,3.06
2018-12-11T06:02:29.449Z,3.05
2018-12-11T06:03:29.417Z,3.06
2018-12-11T06:04:29.405Z,2.90
2018-12-11T06:05:29.392Z,2.95
2018-12-11T06:06:29.384Z,2.85
2018-12-11T06:07:29.336Z,2.95
2018-12-11T06:08:29.311Z,2.93
2018-12-11T06:09:29.306Z,2.90
2018-12-11T06:10:29.317Z,2.84
2018-12-11T06:11:29.267Z,2.92
2018-12-11T06:12:29.253Z,2.84
2018-12-11T06:13:29.217Z,2.95
2018-12-11T06:14:29.210Z,2.95
2018-12-11T06:15:29.188Z,2.99
2018-12-11T06:16:29.161Z,2.92
2018-12-11T06:17:29.137Z,3.00
2018-12-11T06:18:29.109Z,3.03
2018-12-11T06:19:29.099Z,2.97
2018-12-11T06:20:29.087Z,3.05
2018-12-11T06:21:29.060Z,3.14
2018-12-11T06:22:29.034Z,3.05
2018-12-11T06:23:29.026Z,3.06
2018-12-11T06:24:28.991Z,3.14
2018-12-11T06:25:28.974Z,3.06
2018-12-11T06:26:28.989Z,3.10
2018-12-11T06:27:28.929Z,3.13
2018-12-11T06:28:28.925Z,3.15
2018-12-11T06:29:28.893Z,3.20
2018-12-11T06:30:28.877Z,3.17
2018-12-11T06:31:28.846Z,3.15
2018-12-11T06:32:28.828Z,3.17
2018-12-11T06:33:28.841Z,3.29
2018-12-11T06:34:28.938Z,3.26
2018-12-11T06:35:28.776Z,3.31
2018-12-11T06:36:28.749Z,3.29
2018-12-11T06:37:28.735Z,3.31
2018-12-11T06:38:28.708Z,3.26
2018-12-11T06:39:28.686Z,3.29
2018-12-11T06:40:28.681Z,3.29
2018-12-11T06:41:28.658Z,3.29
2018-12-11T06:42:28.623Z,3.23
2018-12-11T06:43:28.621Z,3.29
2018-12-11T06:44:28.744Z,3.23
2018-12-11T06:45:28.576Z,3.14
2018-12-11T06:46:28.546Z,3.10
2018-12-11T06:47:28.529Z,3.13
2018-12-11T06:48:28.508Z,3.15
2018-12-11T06:49:28.482Z,3.15
2018-12-11T06:50:28.515Z,3.10
2018-12-11T06:51:28.451Z,3.15
2018-12-11T06:52:28.431Z,3.17
2018-12-11T06:53:28.409Z,3.13
2018-12-11T06:54:28.403Z,3.11
2018-12-11T06:55:28.370Z,3.05
2018-12-11T06:56:28.385Z,2.96
2018-12-11T06:57:28.340Z,3.02
2018-12-11T06:58:28.311Z,3.13
2018-12-11T06:59:28.289Z,2.97
2018-12-11T07:00:28.304Z,3.11
2018-12-11T07:01:28.245Z,3.13
2018-12-11T07:02:28.221Z,3.08
2018-12-11T07:03:28.210Z,3.06
2018-12-11T07:04:28.184Z,3.08
2018-12-11T07:05:28.193Z,3.06
2018-12-11T07:06:28.140Z,2.99
2018-12-11T07:07:28.198Z,3.05
2018-12-11T07:08:28.122Z,3.02
2018-12-11T07:09:28.087Z,3.14
2018-12-11T07:10:28.071Z,3.15
2018-12-11T07:11:28.039Z,3.03
2018-12-11T07:12:28.021Z,3.13
2018-12-11T07:13:28.104Z,3.00
2018-12-11T07:14:27.978Z,3.02
2018-12-11T07:15:27.969Z,3.13
2018-12-11T07:16:27.960Z,3.14
2018-12-11T07:17:27.927Z,3.10
2018-12-11T07:18:27.902Z,3.13
2018-12-11T07:19:27.922Z,3.08
2018-12-11T07:20:27.854Z,3.05
2018-12-11T07:21:27.840Z,2.97
2018-12-11T07:22:27.815Z,2.89
2018-12-11T07:23:27.799Z,2.95
2018-12-11T07:24:27.855Z,2.93
2018-12-11T07:25:27.762Z,3.02
2018-12-11T07:26:27.751Z,3.03
2018-12-11T07:27:27.740Z,3.02
2018-12-11T07:28:27.706Z,3.03
2018-12-11T07:29:27.682Z,3.02
2018-12-11T07:30:27.733Z,3.02
2018-12-11T07:31:27.642Z,3.05
2018-12-11T07:32:27.622Z,2.99
2018-12-11T07:33:27.598Z,2.99
2018-12-11T07:34:27.572Z,2.97
2018-12-11T07:35:27.561Z,3.05
2018-12-11T07:36:27.562Z,3.05
2018-12-11T07:37:27.554Z,3.03
2018-12-11T07:38:27.504Z,3.06
2018-12-11T07:39:27.480Z,2.96
2018-12-11T07:40:27.466Z,2.97
2018-12-11T07:41:27.427Z,2.79
2018-12-11T07:42:27.448Z,2.89
2018-12-11T07:43:27.390Z,2.87
2018-12-11T07:44:27.381Z,2.95
2018-12-11T07:45:27.359Z,2.97
2018-12-11T07:46:27.329Z,2.84
2018-12-11T07:47:27.379Z,2.96
2018-12-11T07:48:27.284Z,3.02
2018-12-11T07:49:27.269Z,2.95
2018-12-11T07:50:27.247Z,2.99
2018-12-11T07:51:27.228Z,3.13
2018-12-11T07:52:27.219Z,3.13
2018-12-11T07:53:27.272Z,3.00
2018-12-11T07:54:27.174Z,3.11
2018-12-11T07:55:27.160Z,3.06
2018-12-11T07:56:27.127Z,3.11
2018-12-11T07:57:27.118Z,2.97
2018-12-11T07:58:27.100Z,3.05
2018-12-11T07:59:27.066Z,3.11
2018-12-11T08:00:27.057Z,3.03
2018-12-11T08:01:27.026Z,3.03
2018-12-11T08:02:27.046Z,3.15
2018-12-11T08:03:26.982Z,2.97
2018-12-11T08:04:26.966Z,3.03
2018-12-11T08:05:27.082Z,3.00
2018-12-11T08:06:26.924Z,3.05
2018-12-11T08:07:26.900Z,3.00
2018-12-11T08:08:26.899Z,2.99
2018-12-11T08:09:26.878Z,3.05
2018-12-11T08:10:26.848Z,3.03
2018-12-11T08:11:26.837Z,3.05
2018-12-11T08:12:26.862Z,2.99
2018-12-11T08:13:26.800Z,2.92
2018-12-11T08:14:26.765Z,2.99
2018-12-11T08:15:26.750Z,2.95
2018-12-11T08:16:26.736Z,2.96
2018-12-11T08:17:26.705Z,3.05
2018-12-11T08:18:26.721Z,3.05
2018-12-11T08:19:26.667Z,2.97
2018-12-11T08:20:26.680Z,2.93
2018-12-11T08:21:26.633Z,2.93
2018-12-11T08:22:26.618Z,2.95
2018-12-11T08:23:26.620Z,3.03
2018-12-11T08:24:26.572Z,3.05
2018-12-11T08:25:26.583Z,3.10
2018-12-11T08:26:26.524Z,3.02
2018-12-11T08:27:26.501Z,3.02
2018-12-11T08:28:26.484Z,2.96
2018-12-11T08:29:26.479Z,3.11
2018-12-11T08:30:26.497Z,3.15
2018-12-11T08:31:26.422Z,3.13
2018-12-11T08:32:26.451Z,3.14
2018-12-11T08:33:26.387Z,3.14
2018-12-11T08:34:26.372Z,3.23
2018-12-11T08:35:26.420Z,3.21
2018-12-11T08:36:26.388Z,3.17
2018-12-11T08:37:26.305Z,3.26
2018-12-11T08:38:26.286Z,3.24
2018-12-11T08:39:27.134Z,3.18
2018-12-11T08:40:26.255Z,3.31
2018-12-11T08:41:26.294Z,3.31
2018-12-11T08:42:26.199Z,3.36
2018-12-11T08:43:26.190Z,3.32
2018-12-11T08:44:26.165Z,3.32
2018-12-11T08:45:26.149Z,3.35
2018-12-11T08:46:26.128Z,3.42
2018-12-11T08:47:26.130Z,3.39
2018-12-11T08:48:26.094Z,3.40
2018-12-11T08:49:26.064Z,3.31
2018-12-11T08:50:26.045Z,3.32
2018-12-11T08:51:26.029Z,3.23
2018-12-11T08:52:26.115Z,3.33
2018-12-11T08:53:25.976Z,3.31
2018-12-11T08:54:25.961Z,3.29
2018-12-11T08:55:25.949Z,3.28
2018-12-11T08:56:25.914Z,3.32
2018-12-11T08:57:25.901Z,3.36
2018-12-11T08:58:26.025Z,3.23
2018-12-11T08:59:25.863Z,3.39
2018-12-11T09:00:25.837Z,3.40
2018-12-11T09:01:25.819Z,3.31
2018-12-11T09:02:25.817Z,3.48
2018-12-11T09:03:25.785Z,3.40
2018-12-11T09:04:25.774Z,3.40
2018-12-11T09:05:25.743Z,3.48
2018-12-11T09:06:25.731Z,3.48
2018-12-11T09:07:25.740Z,3.50
2018-12-11T09:08:25.688Z,3.51
2018-12-11T09:09:25.700Z,3.50
2018-12-11T09:10:25.638Z,3.52
2018-12-11T09:11:25.624Z,3.52
2018-12-11T09:12:25.608Z,3.54
2018-12-11T09:13:25.590Z,3.50
2018-12-11T09:14:26.741Z,3.52
2018-12-11T09:15:25.559Z,3.58
2018-12-11T09:16:25.520Z,3.62
2018-12-11T09:17:25.498Z,3.62
2018-12-11T09:18:25.491Z,3.57
2018-12-11T09:19:25.478Z,3.72
2018-12-11T09:20:25.853Z,3.57
2018-12-11T09:21:25.434Z,3.66
2018-12-11T09:22:25.556Z,3.68
2018-12-11T09:23:25.381Z,3.70
2018-12-11T09:24:25.361Z,3.70
2018-12-11T09:25:25.345Z,3.68
2018-12-11T09:26:25.318Z,3.69
2018-12-11T09:27:25.316Z,3.80
2018-12-11T09:28:25.439Z,3.80
2018-12-11T09:29:25.266Z,3.72
2018-12-11T09:30:25.260Z,3.79
2018-12-11T09:31:25.235Z,3.75
2018-12-11T09:32:25.226Z,3.76
2018-12-11T09:33:25.200Z,3.73
2018-12-11T09:34:25.172Z,3.79
2018-12-11T09:35:25.151Z,3.79
2018-12-11T09:36:25.123Z,3.84
2018-12-11T09:37:25.108Z,3.80
2018-12-11T09:38:25.091Z,3.90
2018-12-11T09:39:25.132Z,3.83
2018-12-11T09:40:25.052Z,3.91
2018-12-11T09:41:25.024Z,3.90
2018-12-11T09:42:27.888Z,4.08
2018-12-11T09:43:24.995Z,4.05
2018-12-11T09:44:24.980Z,4.15
2018-12-11T09:45:24.994Z,4.20
2018-12-11T09:46:24.941Z,4.33
2018-12-11T09:47:24.918Z,4.30
2018-12-11T09:48:24.884Z,4.12
2018-12-11T09:49:24.902Z,4.15
2018-12-11T09:50:24.863Z,4.15
2018-12-11T09:51:24.832Z,4.22
2018-12-11T09:52:24.817Z,4.11
2018-12-11T09:53:24.806Z,4.12
2018-12-11T09:54:24.856Z,4.16
2018-12-11T09:55:24.748Z,4.15
2018-12-11T09:56:24.782Z,4.09
2018-12-11T09:57:24.724Z,4.14
2018-12-11T09:58:24.692Z,4.18
2018-12-11T09:59:24.689Z,4.18
2018-12-11T10:00:27.214Z,4.29
2018-12-11T10:01:24.656Z,4.27
2018-12-11T10:02:24.631Z,4.30
2018-12-11T10:03:24.674Z,4.40
2018-12-11T10:04:24.588Z,4.37
2018-12-11T10:05:24.555Z,4.36
2018-12-11T10:06:24.562Z,4.27
2018-12-11T10:07:24.516Z,4.36
2018-12-11T10:08:24.498Z,4.36
2018-12-11T10:09:24.488Z,4.42
2018-12-11T10:10:24.454Z,4.44
2018-12-11T10:11:24.499Z,4.48
2018-12-11T10:12:24.417Z,4.45
2018-12-11T10:13:24.411Z,4.48
2018-12-11T10:14:24.392Z,4.54
2018-12-11T10:15:24.369Z,4.58
2018-12-11T10:16:24.342Z,4.59
2018-12-11T10:17:24.362Z,4.72
2018-12-11T10:18:24.317Z,4.73
2018-12-11T10:19:24.287Z,4.69
2018-12-11T10:20:24.272Z,4.82
2018-12-11T10:21:24.249Z,4.78
2018-12-11T10:22:24.225Z,4.88
2018-12-11T10:23:24.354Z,4.75
2018-12-11T10:24:24.187Z,4.75
2018-12-11T10:25:24.180Z,4.75
2018-12-11T10:26:24.164Z,4.69
2018-12-11T10:27:24.128Z,4.58
2018-12-11T10:28:24.109Z,4.51
2018-12-11T10:29:24.155Z,4.55
2018-12-11T10:30:24.079Z,4.55
2018-12-11T10:31:24.054Z,4.55
2018-12-11T10:32:24.036Z,4.58
2018-12-11T10:33:24.030Z,4.55
2018-12-11T10:34:24.006Z,4.51
2018-12-11T10:35:24.054Z,4.58
2018-12-11T10:36:23.961Z,4.67
2018-12-11T10:37:23.940Z,4.67
2018-12-11T10:38:23.937Z,4.73
2018-12-11T10:39:23.910Z,4.77
2018-12-11T10:40:23.884Z,4.78
2018-12-11T10:41:23.949Z,4.72
2018-12-11T10:42:23.847Z,4.77
2018-12-11T10:43:23.834Z,4.67
2018-12-11T10:44:23.808Z,4.72
2018-12-11T10:45:23.801Z,4.66
2018-12-11T10:46:23.769Z,4.70
2018-12-11T10:47:23.814Z,4.75
2018-12-11T10:48:23.729Z,4.62
2018-12-11T10:49:23.713Z,4.50
2018-12-11T10:50:23.694Z,4.55
2018-12-11T10:51:23.680Z,4.59
2018-12-11T10:52:23.662Z,4.55
2018-12-11T10:53:23.634Z,4.51
2018-12-11T10:54:23.618Z,4.48
2018-12-11T10:55:23.613Z,4.45
2018-12-11T10:56:23.582Z,4.48
2018-12-11T10:57:23.567Z,4.59
2018-12-11T10:58:23.593Z,4.54
2018-12-11T10:59:23.517Z,4.51
2018-12-11T11:00:23.506Z,4.69
2018-12-11T11:01:23.490Z,4.69
2018-12-11T11:02:23.466Z,4.69
2018-12-11T11:03:23.455Z,4.75
2018-12-11T11:04:23.463Z,4.84
2018-12-11T11:05:23.419Z,4.82
2018-12-11T11:06:23.396Z,4.75
2018-12-11T11:07:23.394Z,4.88
2018-12-11T11:08:23.359Z,4.97
2018-12-11T11:09:23.350Z,5.02
2018-12-11T11:10:23.322Z,5.03
2018-12-11T11:11:23.319Z,5.13
2018-12-11T11:12:23.278Z,5.10
2018-12-11T11:13:23.283Z,5.15
2018-12-11T11:14:23.241Z,5.10
2018-12-11T11:15:23.276Z,5.12
2018-12-11T11:16:23.199Z,5.10
2018-12-11T11:17:23.190Z,5.12
2018-12-11T11:18:23.172Z,5.20
2018-12-11T11:19:23.140Z,5.15
2018-12-11T11:20:23.136Z,5.21
2018-12-11T11:21:23.118Z,5.39
2018-12-11T11:22:23.096Z,5.35
2018-12-11T11:23:23.058Z,5.40
2018-12-11T11:24:23.049Z,5.48
2018-12-11T11:25:23.021Z,5.48
2018-12-11T11:26:23.037Z,5.57
2018-12-11T11:27:22.992Z,5.46
2018-12-11T11:28:22.980Z,5.60
2018-12-11T11:29:22.958Z,5.61
2018-12-11T11:30:22.932Z,5.58
2018-12-11T11:31:22.984Z,5.63
2018-12-11T11:32:22.900Z,5.63
2018-12-11T11:33:22.886Z,5.71
2018-12-11T11:34:22.863Z,5.82
2018-12-11T11:35:22.842Z,5.83
2018-12-11T11:36:22.815Z,5.81
2018-12-11T11:37:22.805Z,5.93
2018-12-11T11:38:22.808Z,5.93
2018-12-11T11:39:22.812Z,5.96
2018-12-11T11:40:22.771Z,5.94
2018-12-11T11:41:22.730Z,5.94
2018-12-11T11:42:22.701Z,5.91
2018-12-11T11:43:22.728Z,5.93
2018-12-11T11:44:22.674Z,5.90
2018-12-11T11:45:22.659Z,5.94
2018-12-11T11:46:22.631Z,5.93
2018-12-11T11:47:22.619Z,5.96
2018-12-11T11:48:22.593Z,5.96
2018-12-11T11:49:22.585Z,5.93
2018-12-11T11:50:22.563Z,5.96
2018-12-11T11:51:23.086Z,5.90
2018-12-11T11:52:22.521Z,5.81
2018-12-11T11:53:22.609Z,5.86
2018-12-11T11:54:22.483Z,5.86
2018-12-11T11:55:23.159Z,5.79
2018-12-11T11:56:22.453Z,5.74
2018-12-11T11:57:22.438Z,5.82
2018-12-11T11:58:22.508Z,5.81
2018-12-11T11:59:22.389Z,5.82
2018-12-11T12:00:22.374Z,5.68
2018-12-11T12:01:22.370Z,5.71
2018-12-11T12:02:22.414Z,5.79
2018-12-11T12:03:22.417Z,5.74
2018-12-11T12:04:22.300Z,5.71
2018-12-11T12:05:22.278Z,5.75
2018-12-11T12:06:22.273Z,5.74
2018-12-11T12:07:22.252Z,5.64
2018-12-11T12:08:22.366Z,5.61
2018-12-11T12:09:22.222Z,5.67
2018-12-11T12:10:22.186Z,5.71
2018-12-11T12:11:22.176Z,5.67
2018-12-11T12:12:22.183Z,5.74
2018-12-11T12:13:22.134Z,5.65
2018-12-11T12:14:22.186Z,5.75
2018-12-11T12:15:22.095Z,5.63
2018-12-11T12:16:22.218Z,5.65
2018-12-11T12:17:22.063Z,5.67
2018-12-11T12:18:22.211Z,5.58
2018-12-11T12:19:22.103Z,5.56
2018-12-11T12:20:22.016Z,5.48
2018-12-11T12:21:21.980Z,5.39
2018-12-11T12:22:21.973Z,5.40
2018-12-11T12:23:21.952Z,5.45
2018-12-11T12:24:21.928Z,5.27
2018-12-11T12:25:21.976Z,5.38
2018-12-11T12:26:21.889Z,5.38
2018-12-11T12:27:21.880Z,5.35
2018-12-11T12:28:21.861Z,5.38
2018-12-11T12:29:21.846Z,5.20
2018-12-11T12:30:21.903Z,5.20
2018-12-11T12:31:21.808Z,5.20
2018-12-11T12:32:21.785Z,5.24
2018-12-11T12:33:21.758Z,5.20
2018-12-11T12:34:21.738Z,5.40
2018-12-11T12:35:21.717Z,5.38
2018-12-11T12:36:21.743Z,5.38
2018-12-11T12:37:21.693Z,5.40
2018-12-11T12:38:21.670Z,5.46
2018-12-11T12:39:21.646Z,5.57
2018-12-11T12:40:21.631Z,5.57
2018-12-11T12:41:21.648Z,5.74
2018-12-11T12:42:21.599Z,5.83
2018-12-11T12:43:21.581Z,5.93
2018-12-11T12:44:21.555Z,5.94
2018-12-11T12:45:21.544Z,5.97
2018-12-11T12:46:21.573Z,6.01
2018-12-11T12:47:21.522Z,5.90
2018-12-11T12:48:21.477Z,5.96
2018-12-11T12:49:21.465Z,5.83
2018-12-11T12:50:21.472Z,5.75
2018-12-11T12:51:21.436Z,5.64
2018-12-11T12:52:21.448Z,5.65
2018-12-11T12:53:21.384Z,5.78
2018-12-11T12:54:21.398Z,5.76
2018-12-11T12:55:21.359Z,5.71
2018-12-11T12:56:21.342Z,5.67
2018-12-11T12:57:21.313Z,5.64
2018-12-11T12:58:21.303Z,5.72
2018-12-11T12:59:21.347Z,5.63
2018-12-11T13:00:21.256Z,5.67
2018-12-11T13:01:21.235Z,5.64
2018-12-11T13:02:21.237Z,5.68
2018-12-11T13:03:21.200Z,5.63
2018-12-11T13:04:21.180Z,5.58
2018-12-11T13:05:21.191Z,5.58
2018-12-11T13:06:21.145Z,5.58
2018-12-11T13:07:21.127Z,5.49
2018-12-11T13:08:21.112Z,5.48
2018-12-11T13:09:21.088Z,5.43
2018-12-11T13:10:21.069Z,5.45
2018-12-11T13:11:21.053Z,5.46
2018-12-11T13:12:21.039Z,5.48
2018-12-11T13:13:21.011Z,5.43
2018-12-11T13:14:20.990Z,5.42
2018-12-11T13:15:21.037Z,5.42
2018-12-11T13:16:20.966Z,5.42
2018-12-11T13:17:20.946Z,5.40
2018-12-11T13:18:20.926Z,5.31
2018-12-11T13:19:20.897Z,5.28
2018-12-11T13:20:20.896Z,5.33
2018-12-11T13:21:20.903Z,5.35